createdAt,value
2018-10-11T00:00:00.332Z,18.04
2018-10-11T00:02:29.253Z,18.04
2018-10-11T00:04:58.289Z,18.01
2018-10-11T00:07:27.366Z,18.00
2018-10-11T00:09:56.452Z,17.97
2018-10-11T00:12:26.351Z,17.94
2018-10-11T00:14:55.564Z,17.90
2018-10-11T00:17:24.674Z,17.86
2018-10-11T00:19:54.326Z,17.83
2018-10-11T00:22:23.919Z,17.79
2018-10-11T00:24:53.795Z,17.76
2018-10-11T00:27:23.000Z,17.74
2018-10-11T00:29:52.138Z,17.69
2018-10-11T00:32:21.503Z,17.65
2018-10-11T00:34:50.545Z,17.63
2018-10-11T00:37:19.545Z,17.58
2018-10-11T00:39:48.658Z,17.53
2018-10-11T00:42:17.560Z,17.50
2018-10-11T00:44:46.861Z,17.46
2018-10-11T00:47:15.938Z,17.43
2018-10-11T00:49:45.583Z,17.43
2018-10-11T00:52:14.645Z,17.43
2018-10-11T00:54:43.727Z,17.42
2018-10-11T00:57:12.777Z,17.41
2018-10-11T00:59:41.737Z,17.40
2018-10-11T01:02:11.397Z,17.33
2018-10-11T01:04:40.552Z,17.37
2018-10-11T01:07:09.627Z,17.36
2018-10-11T01:09:38.615Z,17.36
2018-10-11T01:12:14.351Z,17.35
2018-10-11T01:14:43.979Z,17.35
2018-10-11T01:17:12.942Z,17.34
2018-10-11T01:19:42.269Z,17.34
2018-10-11T01:22:11.197Z,17.35
2018-10-11T01:24:40.514Z,17.40
2018-10-11T01:27:09.592Z,17.38
2018-10-11T01:29:38.816Z,17.37
2018-10-11T01:32:08.211Z,17.37
2018-10-11T01:34:37.193Z,17.37
2018-10-11T01:37:06.296Z,17.37
2018-10-11T01:39:35.392Z,17.37
2018-10-11T01:42:05.198Z,17.36
2018-10-11T01:44:34.538Z,17.37
2018-10-11T01:47:03.608Z,17.37
2018-10-11T01:49:32.722Z,17.37
2018-10-11T01:52:01.831Z,17.36
2018-10-11T01:54:30.845Z,17.37
2018-10-11T01:56:59.973Z,17.36
2018-10-11T01:59:28.903Z,17.37
2018-10-11T02:01:57.869Z,17.34
2018-10-11T02:04:27.078Z,17.34
2018-10-11T02:06:56.161Z,17.32
2018-10-11T02:09:25.303Z,17.27
2018-10-11T02:11:54.904Z,17.30
2018-10-11T02:14:25.961Z,17.28
2018-10-11T02:16:55.042Z,17.23
2018-10-11T02:19:24.564Z,17.25
2018-10-11T02:21:53.663Z,17.23
2018-10-11T02:24:22.831Z,17.23
2018-10-11T02:26:51.751Z,17.20
2018-10-11T02:29:20.873Z,17.16
2018-10-11T02:31:50.174Z,17.15
2018-10-11T02:34:19.601Z,17.11
2018-10-11T02:36:48.592Z,17.09
2018-10-11T02:39:17.777Z,17.07
2018-10-11T02:41:46.893Z,17.05
2018-10-11T02:44:16.343Z,17.04
2018-10-11T02:46:45.437Z,17.04
2018-10-11T02:49:14.560Z,17.03
2018-10-11T02:51:43.657Z,17.01
2018-10-11T02:54:12.736Z,17.02
2018-10-11T02:56:41.796Z,17.01
2018-10-11T02:59:27.807Z,17.00
2018-10-11T03:01:57.414Z,16.97
2018-10-11T03:04:26.348Z,16.88
2018-10-11T03:06:55.521Z,16.88
2018-10-11T03:09:24.682Z,16.81
2018-10-11T03:11:53.693Z,16.83
2018-10-11T03:14:22.886Z,16.80
2018-10-11T03:16:51.960Z,16.73
2018-10-11T03:19:21.017Z,16.77
2018-10-11T03:21:49.941Z,16.76
2018-10-11T03:24:18.870Z,16.73
2018-10-11T03:26:48.332Z,16.69
2018-10-11T03:29:17.373Z,16.66
2018-10-11T03:31:46.360Z,16.63
2018-10-11T03:34:15.720Z,16.59
2018-10-11T03:36:45.038Z,16.65
2018-10-11T03:39:14.194Z,16.65
2018-10-11T03:41:43.625Z,16.66
2018-10-11T03:44:12.641Z,16.69
2018-10-11T03:46:42.005Z,16.71
2018-10-11T03:49:11.242Z,16.71
2018-10-11T03:51:41.386Z,16.72
2018-10-11T03:54:10.483Z,16.69
2018-10-11T03:56:39.577Z,16.74
2018-10-11T03:59:08.477Z,16.75
2018-10-11T04:01:38.205Z,16.75
2018-10-11T04:04:07.853Z,16.76
2018-10-11T04:06:37.187Z,16.73
2018-10-11T04:09:10.361Z,16.79
2018-10-11T04:11:39.445Z,16.80
2018-10-11T04:14:08.443Z,16.81
2018-10-11T04:16:37.340Z,16.80
2018-10-11T04:19:06.530Z,16.80
2018-10-11T04:21:35.625Z,16.78
2018-10-11T04:24:04.598Z,16.77
2018-10-11T04:26:33.661Z,16.74
2018-10-11T04:29:03.108Z,16.72
2018-10-11T04:31:32.734Z,16.69
2018-10-11T04:34:01.668Z,16.70
2018-10-11T04:36:30.793Z,16.70
2018-10-11T04:38:59.749Z,16.70
2018-10-11T04:41:28.740Z,16.68
2018-10-11T04:43:57.976Z,16.67
2018-10-11T04:46:26.938Z,16.65
2018-10-11T04:48:55.946Z,16.62
2018-10-11T04:51:24.938Z,16.63
2018-10-11T04:53:56.541Z,16.62
2018-10-11T04:56:27.952Z,16.61
2018-10-11T04:58:57.702Z,16.61
2018-10-11T05:01:27.362Z,16.56
2018-10-11T05:03:56.454Z,16.56
2018-10-11T05:06:25.501Z,16.56
2018-10-11T05:08:54.410Z,16.57
2018-10-11T05:11:23.328Z,16.53
2018-10-11T05:13:52.393Z,16.46
2018-10-11T05:16:21.764Z,16.47
2018-10-11T05:18:55.370Z,16.45
2018-10-11T05:21:24.629Z,16.41
2018-10-11T05:23:54.278Z,16.39
2018-10-11T05:26:23.284Z,16.36
2018-10-11T05:28:52.397Z,16.33
2018-10-11T05:31:21.827Z,16.31
2018-10-11T05:33:52.107Z,16.28
2018-10-11T05:36:21.133Z,16.26
2018-10-11T05:38:50.621Z,16.19
2018-10-11T05:41:19.797Z,16.19
2018-10-11T05:43:49.068Z,16.17
2018-10-11T05:46:23.895Z,16.13
2018-10-11T05:48:53.354Z,16.12
2018-10-11T05:51:22.725Z,16.10
2018-10-11T05:53:53.773Z,16.10
2018-10-11T05:56:23.553Z,16.10
2018-10-11T05:58:52.983Z,16.09
2018-10-11T06:01:23.275Z,16.07
2018-10-11T06:03:52.508Z,16.08
2018-10-11T06:06:21.785Z,16.08
2018-10-11T06:08:50.863Z,16.08
2018-10-11T06:11:20.000Z,16.09
2018-10-11T06:13:49.672Z,16.10
2018-10-11T06:16:18.651Z,16.10
2018-10-11T06:18:48.051Z,16.11
2018-10-11T06:21:17.053Z,16.10
2018-10-11T06:23:46.060Z,16.09
2018-10-11T06:26:15.265Z,16.07
2018-10-11T06:28:44.340Z,16.08
2018-10-11T06:31:13.413Z,16.08
2018-10-11T06:33:43.371Z,16.10
2018-10-11T06:36:12.454Z,16.11
2018-10-11T06:38:41.619Z,16.14
2018-10-11T06:41:10.664Z,16.18
2018-10-11T06:43:40.453Z,16.23
2018-10-11T06:46:09.543Z,16.27
2018-10-11T06:48:38.541Z,16.30
2018-10-11T06:51:07.662Z,16.34
2018-10-11T06:53:36.834Z,16.39
2018-10-11T06:56:12.360Z,16.43
2018-10-11T06:58:41.709Z,16.48
2018-10-11T07:01:10.659Z,16.55
2018-10-11T07:03:39.630Z,16.61
2018-10-11T07:06:09.159Z,16.64
2018-10-11T07:08:38.150Z,16.67
2018-10-11T07:11:07.969Z,16.70
2018-10-11T07:13:37.217Z,16.74
2018-10-11T07:16:06.947Z,16.76
2018-10-11T07:18:35.908Z,16.79
2018-10-11T07:21:04.983Z,16.81
2018-10-11T07:23:34.053Z,16.83
2018-10-11T07:26:03.671Z,16.85
2018-10-11T07:28:32.667Z,16.89
2018-10-11T07:31:01.757Z,16.91
2018-10-11T07:33:30.741Z,16.95
2018-10-11T07:35:59.837Z,16.98
2018-10-11T07:38:29.017Z,17.03
2018-10-11T07:40:58.135Z,17.08
2018-10-11T07:43:28.186Z,17.14
2018-10-11T07:45:57.266Z,17.20
2018-10-11T07:48:26.272Z,17.28
2018-10-11T07:50:55.373Z,17.35
2018-10-11T07:53:24.995Z,17.43
2018-10-11T07:55:54.109Z,17.50
2018-10-11T07:58:23.137Z,17.56
2018-10-11T08:00:52.223Z,17.67
2018-10-11T08:03:21.899Z,17.75
2018-10-11T08:05:51.205Z,17.83
2018-10-11T08:08:20.253Z,17.89
2018-10-11T08:10:49.433Z,17.98
2018-10-11T08:13:18.838Z,18.08
2018-10-11T08:15:48.067Z,18.16
2018-10-11T08:18:17.292Z,18.20
2018-10-11T08:20:46.336Z,18.34
2018-10-11T08:23:15.493Z,18.42
2018-10-11T08:25:44.877Z,18.50
2018-10-11T08:30:48.193Z,18.67
2018-10-11T08:33:17.548Z,18.77
2018-10-11T08:35:46.970Z,18.86
2018-10-11T08:38:16.193Z,18.95
2018-10-11T08:40:45.699Z,19.05
2018-10-11T08:43:14.646Z,19.13
2018-10-11T08:45:43.663Z,19.22
2018-10-11T08:48:12.856Z,19.32
2018-10-11T08:50:41.984Z,19.43
2018-10-11T08:53:11.139Z,19.50
2018-10-11T08:55:40.733Z,19.59
2018-10-11T08:58:09.811Z,19.68
2018-10-11T09:00:38.975Z,19.79
2018-10-11T09:03:08.463Z,19.90
2018-10-11T09:05:37.536Z,19.98
2018-10-11T09:08:07.534Z,20.07
2018-10-11T09:10:38.449Z,20.18
2018-10-11T09:13:05.928Z,20.27
2018-10-11T09:15:34.842Z,20.39
2018-10-11T09:18:03.870Z,20.50
2018-10-11T09:20:32.852Z,20.61
2018-10-11T09:23:02.144Z,20.72
2018-10-11T09:25:31.178Z,20.82
2018-10-11T09:28:00.192Z,20.91
2018-10-11T09:30:29.359Z,21.02
2018-10-11T09:32:58.418Z,21.13
2018-10-11T09:35:27.422Z,21.23
2018-10-11T09:37:56.831Z,21.33
2018-10-11T09:40:25.842Z,21.42
2018-10-11T09:42:54.935Z,21.53
2018-10-11T09:45:25.219Z,21.63
2018-10-11T09:47:54.294Z,21.73
2018-10-11T09:50:23.229Z,21.82
2018-10-11T09:52:52.247Z,21.91
2018-10-11T09:55:21.252Z,22.00
2018-10-11T09:57:51.013Z,22.09
2018-10-11T10:00:25.068Z,22.19
2018-10-11T10:02:54.318Z,22.27
2018-10-11T10:05:23.640Z,22.34
2018-10-11T10:07:52.554Z,22.42
2018-10-11T10:10:21.855Z,22.50
2018-10-11T10:12:51.815Z,22.58
2018-10-11T10:15:21.428Z,22.64
2018-10-11T10:17:51.019Z,22.71
2018-10-11T10:20:20.044Z,22.78
2018-10-11T10:22:49.183Z,22.84
2018-10-11T10:25:18.216Z,22.91
2018-10-11T10:27:47.236Z,22.98
2018-10-11T10:30:21.336Z,23.06
2018-10-11T10:32:50.479Z,23.13
2018-10-11T10:35:19.434Z,23.18
2018-10-11T10:37:48.554Z,23.27
2018-10-11T10:40:17.610Z,23.33
2018-10-11T10:42:47.251Z,23.41
2018-10-11T10:45:16.856Z,23.47
2018-10-11T10:47:45.851Z,23.53
2018-10-11T10:50:14.983Z,23.60
2018-10-11T10:52:44.064Z,23.66
2018-10-11T10:55:13.124Z,23.72
2018-10-11T10:57:42.919Z,23.81
2018-10-11T11:00:12.167Z,23.91
2018-10-11T11:02:41.563Z,24.01
2018-10-11T11:05:10.803Z,24.07
2018-10-11T11:07:39.765Z,24.13
2018-10-11T11:10:09.218Z,24.19
2018-10-11T11:12:38.186Z,24.23
2018-10-11T11:15:07.146Z,24.27
2018-10-11T11:17:36.162Z,24.29
2018-10-11T11:20:05.104Z,24.33
2018-10-11T11:22:34.276Z,24.37
2018-10-11T11:25:03.788Z,24.41
2018-10-11T11:27:34.018Z,24.48
2018-10-11T11:30:03.050Z,24.56
2018-10-11T11:32:32.560Z,24.65
2018-10-11T11:35:01.736Z,24.69
2018-10-11T11:37:30.731Z,24.74
2018-10-11T11:39:59.932Z,24.80
2018-10-11T11:42:29.060Z,24.86
2018-10-11T11:44:58.183Z,24.91
2018-10-11T11:47:27.361Z,24.97
2018-10-11T11:49:56.395Z,24.99
2018-10-11T11:52:25.326Z,25.01
2018-10-11T11:54:54.368Z,25.04
2018-10-11T11:57:23.538Z,25.05
2018-10-11T11:59:52.520Z,25.04
2018-10-11T12:02:21.448Z,25.05
2018-10-11T12:04:50.371Z,25.06
2018-10-11T12:07:19.436Z,25.09
2018-10-11T12:09:48.411Z,25.10
2018-10-11T12:12:30.070Z,25.10
2018-10-11T12:15:00.534Z,25.11
2018-10-11T12:17:29.929Z,25.14
2018-10-11T12:19:59.023Z,25.19
2018-10-11T12:22:28.280Z,25.22
2018-10-11T12:25:03.744Z,25.26
2018-10-11T12:27:32.791Z,25.28
2018-10-11T12:30:02.782Z,25.30
2018-10-11T12:32:31.791Z,25.33
2018-10-11T12:35:00.907Z,25.37
2018-10-11T12:37:29.803Z,25.43
2018-10-11T12:39:59.629Z,25.47
2018-10-11T12:42:30.607Z,25.51
2018-10-11T12:45:00.111Z,25.56
2018-10-11T12:47:29.133Z,25.60
2018-10-11T12:49:58.237Z,25.63
2018-10-11T12:52:27.925Z,25.67
2018-10-11T12:54:56.973Z,25.71
2018-10-11T12:57:26.497Z,25.74
2018-10-11T12:59:55.771Z,25.78
2018-10-11T13:02:24.998Z,25.81
2018-10-11T13:04:54.060Z,25.83
2018-10-11T13:07:23.160Z,25.85
2018-10-11T13:09:52.088Z,25.88
2018-10-11T13:12:21.510Z,25.89
2018-10-11T13:14:50.590Z,25.90
2018-10-11T13:17:19.558Z,25.92
2018-10-11T13:19:49.121Z,25.93
2018-10-11T13:22:18.154Z,25.94
2018-10-11T13:24:48.867Z,25.95
2018-10-11T13:27:16.440Z,25.97
2018-10-11T13:29:45.819Z,26.00
2018-10-11T13:32:15.346Z,26.03
2018-10-11T13:34:44.305Z,26.05
2018-10-11T13:37:13.299Z,26.05
2018-10-11T13:39:48.575Z,26.04
2018-10-11T13:42:11.392Z,26.03
2018-10-11T13:44:40.373Z,26.01
2018-10-11T13:47:09.754Z,26.00
2018-10-11T13:49:39.588Z,26.00
2018-10-11T13:52:11.252Z,25.99
2018-10-11T13:54:37.765Z,25.99
2018-10-11T13:57:06.771Z,25.99
2018-10-11T13:59:35.762Z,25.99
2018-10-11T14:02:04.858Z,25.98
2018-10-11T14:04:34.848Z,25.95
2018-10-11T14:07:03.750Z,25.90
2018-10-11T14:09:32.646Z,25.85
2018-10-11T14:12:01.772Z,25.78
2018-10-11T14:14:30.950Z,25.74
2018-10-11T14:16:59.950Z,25.71
2018-10-11T14:19:28.863Z,25.65
2018-10-11T14:21:57.930Z,25.62
2018-10-11T14:24:26.862Z,25.57
2018-10-11T14:26:55.781Z,25.55
2018-10-11T14:29:24.714Z,25.49
2018-10-11T14:31:53.743Z,25.44
2018-10-11T14:34:23.968Z,25.37
2018-10-11T14:36:53.216Z,25.29
2018-10-11T14:39:22.977Z,25.22
2018-10-11T14:41:51.901Z,25.16
2018-10-11T14:44:21.006Z,25.11
2018-10-11T14:46:51.824Z,25.06
2018-10-11T14:49:20.862Z,24.98
2018-10-11T14:51:50.365Z,24.90
2018-10-11T14:54:19.466Z,24.81
2018-10-11T14:56:48.394Z,24.74
2018-10-11T14:59:17.390Z,24.68
2018-10-11T15:01:47.262Z,24.61
2018-10-11T15:04:16.366Z,24.55
2018-10-11T15:06:45.750Z,24.48
2018-10-11T15:09:15.621Z,24.43
2018-10-11T15:11:44.457Z,24.38
2018-10-11T15:14:14.598Z,24.33
2018-10-11T15:16:43.515Z,24.30
2018-10-11T15:19:12.690Z,24.28
2018-10-11T15:21:42.348Z,24.24
2018-10-11T15:24:11.401Z,24.20
2018-10-11T15:26:40.386Z,24.16
2018-10-11T15:29:09.338Z,24.12
2018-10-11T15:31:39.269Z,24.07
2018-10-11T15:34:08.268Z,24.05
2018-10-11T15:36:37.345Z,24.01
2018-10-11T15:39:09.288Z,23.98
2018-10-11T15:41:38.700Z,23.94
2018-10-11T15:44:07.956Z,23.89
2018-10-11T15:46:37.017Z,23.86
2018-10-11T15:49:06.387Z,23.82
2018-10-11T15:51:35.453Z,23.79
2018-10-11T15:54:04.313Z,23.75
2018-10-11T15:56:33.854Z,23.71
2018-10-11T15:59:02.984Z,23.67
2018-10-11T16:01:32.427Z,23.64
2018-10-11T16:04:02.019Z,23.61
2018-10-11T16:06:31.576Z,23.57
2018-10-11T16:09:00.624Z,23.51
2018-10-11T16:11:29.880Z,23.48
2018-10-11T16:13:58.794Z,23.43
2018-10-11T16:16:27.850Z,23.39
2018-10-11T16:18:56.739Z,23.34
2018-10-11T16:21:25.874Z,23.29
2018-10-11T16:23:54.807Z,23.25
2018-10-11T16:26:24.553Z,23.18
2018-10-11T16:28:53.736Z,23.16
2018-10-11T16:31:22.794Z,23.11
2018-10-11T16:33:51.882Z,23.06
2018-10-11T16:36:20.908Z,23.01
2018-10-11T16:38:50.739Z,22.96
2018-10-11T16:41:19.683Z,22.91
2018-10-11T16:43:48.975Z,22.88
2018-10-11T16:46:18.478Z,22.83
2018-10-11T16:48:48.287Z,22.79
2018-10-11T16:51:17.466Z,22.74
2018-10-11T16:53:46.367Z,22.70
2018-10-11T16:56:15.343Z,22.67
2018-10-11T16:58:44.428Z,22.62
2018-10-11T17:01:13.543Z,22.56
2018-10-11T17:03:42.455Z,22.51
2018-10-11T17:06:11.412Z,22.48
2018-10-11T17:08:40.486Z,22.43
2018-10-11T17:11:09.555Z,22.40
2018-10-11T17:13:38.813Z,22.35
2018-10-11T17:16:08.072Z,22.31
2018-10-11T17:18:37.066Z,22.27
2018-10-11T17:21:06.498Z,22.23
2018-10-11T17:23:36.135Z,22.18
2018-10-11T17:26:05.091Z,22.13
2018-10-11T17:28:34.318Z,22.10
2018-10-11T17:31:03.397Z,22.05
2018-10-11T17:33:32.617Z,21.99
2018-10-11T17:36:01.802Z,21.94
2018-10-11T17:38:31.391Z,21.89
2018-10-11T17:41:00.525Z,21.83
2018-10-11T17:43:29.679Z,21.78
2018-10-11T17:45:58.758Z,21.73
2018-10-11T17:48:27.807Z,21.67
2018-10-11T17:50:56.590Z,21.61
2018-10-11T17:53:25.691Z,21.56
2018-10-11T17:55:54.626Z,21.51
2018-10-11T17:58:23.670Z,21.47
2018-10-11T18:00:52.628Z,21.41
2018-10-11T18:03:22.828Z,21.34
2018-10-11T18:05:52.010Z,21.31
2018-10-11T18:08:21.267Z,21.25
2018-10-11T18:10:50.259Z,21.21
2018-10-11T18:13:19.388Z,21.17
2018-10-11T18:15:48.471Z,21.13
2018-10-11T18:18:17.668Z,21.09
2018-10-11T18:20:46.771Z,21.04
2018-10-11T18:23:15.884Z,21.00
2018-10-11T18:25:45.473Z,20.95
2018-10-11T18:28:14.639Z,20.91
2018-10-11T18:30:43.661Z,20.87
2018-10-11T18:33:12.826Z,20.83
2018-10-11T18:35:41.911Z,20.78
2018-10-11T18:38:11.136Z,20.76
2018-10-11T18:40:40.779Z,20.72
2018-10-11T18:43:09.830Z,20.69
2018-10-11T18:45:38.983Z,20.65
2018-10-11T18:48:08.134Z,20.61
2018-10-11T18:50:37.076Z,20.57
2018-10-11T18:53:06.000Z,20.55
2018-10-11T18:55:35.102Z,20.51
2018-10-11T18:58:04.424Z,20.46
2018-10-11T19:00:33.497Z,20.43
2018-10-11T19:03:03.083Z,20.39
2018-10-11T19:05:32.425Z,20.35
2018-10-11T19:08:01.402Z,20.33
2018-10-11T19:10:30.505Z,20.28
2018-10-11T19:13:00.030Z,20.26
2018-10-11T19:15:29.149Z,20.24
2018-10-11T19:17:58.137Z,20.24
2018-10-11T19:20:27.157Z,20.21
2018-10-11T19:22:59.990Z,20.19
2018-10-11T19:25:29.087Z,20.16
2018-10-11T19:27:58.192Z,20.14
2018-10-11T19:30:27.064Z,20.12
2018-10-11T19:32:55.955Z,20.10
2018-10-11T19:35:24.891Z,20.08
2018-10-11T19:37:54.056Z,20.06
2018-10-11T19:40:23.122Z,20.04
2018-10-11T19:42:52.760Z,19.99
2018-10-11T19:45:21.845Z,19.96
2018-10-11T19:47:50.819Z,19.94
2018-10-11T19:50:19.994Z,19.93
2018-10-11T19:52:48.982Z,19.90
2018-10-11T19:55:17.954Z,19.89
2018-10-11T19:57:47.741Z,19.85
2018-10-11T20:00:16.722Z,19.82
2018-10-11T20:02:45.957Z,19.79
2018-10-11T20:05:15.124Z,19.76
2018-10-11T20:07:44.221Z,19.73
2018-10-11T20:10:13.234Z,19.70
2018-10-11T20:12:42.145Z,19.67
2018-10-11T20:15:11.473Z,19.65
2018-10-11T20:17:41.079Z,19.63
2018-10-11T20:20:10.129Z,19.61
2018-10-11T20:22:39.125Z,19.60
2018-10-11T20:25:08.113Z,19.59
2018-10-11T20:27:37.083Z,19.57
2018-10-11T20:30:06.400Z,19.55
2018-10-11T20:32:35.579Z,19.54
2018-10-11T20:35:04.919Z,19.53
2018-10-11T20:37:33.983Z,19.53
2018-10-11T20:40:03.146Z,19.52
2018-10-11T20:42:32.133Z,19.51
2018-10-11T20:45:01.256Z,19.50
2018-10-11T20:47:30.280Z,19.48
2018-10-11T20:49:59.362Z,19.48
2018-10-11T20:52:28.206Z,19.47
2018-10-11T20:54:57.279Z,19.47
2018-10-11T20:57:26.497Z,19.46
2018-10-11T20:59:55.647Z,19.46
2018-10-11T21:02:25.241Z,19.44
2018-10-11T21:04:55.123Z,19.43
2018-10-11T21:07:24.377Z,19.41
2018-10-11T21:09:53.416Z,19.40
2018-10-11T21:12:22.306Z,19.38
2018-10-11T21:14:51.291Z,19.34
2018-10-11T21:17:20.371Z,19.31
2018-10-11T21:19:49.544Z,19.27
2018-10-11T21:22:19.536Z,19.24
2018-10-11T21:24:48.576Z,19.22
2018-10-11T21:27:17.557Z,19.19
2018-10-11T21:29:47.030Z,19.18
2018-10-11T21:32:16.179Z,19.18
2018-10-11T21:34:45.061Z,19.18
2018-10-11T21:37:14.252Z,19.18
2018-10-11T21:39:43.253Z,19.17
2018-10-11T21:42:12.219Z,19.16
2018-10-11T21:44:41.156Z,19.15
2018-10-11T21:47:10.020Z,19.12
2018-10-11T21:49:38.964Z,19.09
2018-10-11T21:52:08.310Z,19.08
2018-10-11T21:54:37.401Z,19.05
2018-10-11T21:57:06.643Z,19.02
2018-10-11T21:59:38.534Z,19.01
2018-10-11T22:02:07.659Z,18.98
2018-10-11T22:04:36.642Z,18.95
2018-10-11T22:07:05.719Z,18.92
2018-10-11T22:09:34.735Z,18.91
2018-10-11T22:12:03.841Z,18.87
2018-10-11T22:14:32.944Z,18.85
2018-10-11T22:17:02.043Z,18.82
2018-10-11T22:19:30.982Z,18.80
2018-10-11T22:22:00.633Z,18.78
2018-10-11T22:24:29.640Z,18.75
2018-10-11T22:26:58.510Z,18.73
2018-10-11T22:29:27.736Z,18.72
2018-10-11T22:31:56.804Z,18.72
2018-10-11T22:34:26.025Z,18.71
2018-10-11T22:36:55.092Z,18.69
2018-10-11T22:39:24.286Z,18.66
2018-10-11T22:41:53.836Z,18.63
2018-10-11T22:44:23.261Z,18.58
2018-10-11T22:46:52.746Z,18.53
2018-10-11T22:49:21.813Z,18.51
2018-10-11T22:51:50.821Z,18.47
2018-10-11T22:54:19.935Z,18.42
2018-10-11T22:56:48.966Z,18.38
2018-10-11T22:59:18.019Z,18.34
2018-10-11T23:01:47.312Z,18.29
2018-10-11T23:04:16.644Z,18.27
2018-10-11T23:06:45.927Z,18.22
2018-10-11T23:09:14.740Z,18.18
2018-10-11T23:11:43.902Z,18.14
2018-10-11T23:14:12.888Z,18.10
2018-10-11T23:16:41.937Z,18.07
2018-10-11T23:19:10.831Z,18.04
2018-10-11T23:21:39.767Z,18.01
2018-10-11T23:24:08.709Z,18.00
2018-10-11T23:26:37.699Z,17.97
2018-10-11T23:29:07.019Z,17.94
2018-10-11T23:31:35.937Z,17.91
2018-10-11T23:34:05.422Z,17.88
2018-10-11T23:36:34.443Z,17.85
2018-10-11T23:39:04.567Z,17.83
2018-10-11T23:41:33.621Z,17.78
2018-10-11T23:44:02.678Z,17.75
2018-10-11T23:46:31.763Z,17.72
2018-10-11T23:49:00.660Z,17.71
2018-10-11T23:51:29.979Z,17.70
2018-10-11T23:53:58.902Z,17.68
2018-10-11T23:56:28.027Z,17.68
2018-10-11T23:58:57.008Z,17.66
